FW4559 Weather Reports


Display with metric or nautical units.
time (UTC)temp
F
wind
direction
speed
MPH
gust
MPH
rain 1hr
in
rain 24hr
in
rain mn
in
humidity
%
barometer
mb
20200409031047 57 259 5.0 11.0 0.00 0.10 0.10 75 1005.0
20200409030544 57 247 5.0 12.0 0.00 0.10 0.10 74 1005.1
20200409030102 57 230 5.0 12.0 0.00 0.10 0.10 73 1005.1
20200409025544 57 213 5.0 12.0 0.00 0.10 0.10 74 1005.2
20200409025041 57 232 3.0 14.0 0.00 0.10 0.10 74 1004.9
20200409024559 57 243 3.0 14.0 0.00 0.10 0.10 75 1005.2
20200409024041 56 200 3.0 13.0 0.00 0.10 0.10 77 1005.5
20200409023542 56 192 7.0 19.0 0.00 0.10 0.10 77 1005.5
20200409023115 55 325 8.0 18.0 0.00 0.10 0.10 81 1005.6
20200409022539 53 270 7.0 18.0 0.00 0.10 0.10 84 1005.8
20200409022039 52 35 6.0 14.0 0.00 0.10 0.10 88 1006.1
20200409021745 52 264 6.0 11.0 0.00 0.10 0.10 90 1006.1
20200409021059 52 293 2.0 5.0 0.00 0.10 0.10 89 1005.9
20200409020537 52 308 1.0 5.0 0.00 0.10 0.10 88 1005.7
20200409020130 52 305 0.0 2.0 0.00 0.10 0.10 90 1005.7
20200409015538 51 266 0.0 4.0 0.00 0.10 0.10 90 1005.8
20200409015037 51 277 0.0 4.0 0.00 0.10 0.10 91 1005.6
20200409014603 51 228 0.0 3.0 0.00 0.10 0.10 92 1005.7
20200409014039 51 124 0.0 2.0 0.00 0.10 0.10 91 1005.7
20200409013535 51 120 0.0 3.0 0.00 0.10 0.10 91 1005.8
20200409013117 51 101 1.0 3.0 0.00 0.10 0.10 91 1006.0
20200409012605 51 127 0.0 4.0 0.01 0.10 0.10 91 1006.0
20200409012035 51 96 0.0 4.0 0.02 0.10 0.10 91 1006.4
20200409011602 52 92 1.0 4.0 0.02 0.10 0.10 90 1006.4
20200409011055 52 137 2.0 4.0 0.05 0.10 0.10 89 1006.4
20200409010541 51 105 2.0 4.0 0.07 0.10 0.10 91 1006.5
20200409010054 51 98 1.0 4.0 0.09 0.10 0.10 91 1006.6
20200409005534 51 141 0.0 0.0 0.09 0.10 0.10 91 1006.7
20200409005033 51 103 0.0 0.0 0.09 0.10 0.10 90 1007.0
20200409004540 51 103 0.0 0.0 0.09 0.10 0.10 90 1006.9
20200409004035 52 96 0.0 0.0 0.10 0.10 0.10 90 1006.8
20200409003537 52 96 0.0 6.0 0.10 0.10 0.10 89 1007.0
20200409003043 51 75 1.0 6.0 0.10 0.10 0.10 90 1007.1
20200409002533 51 246 0.0 1.0 0.09 0.09 0.09 90 1007.6
20200409002031 51 246 0.0 2.0 0.08 0.08 0.08 89 1007.7
20200409001611 52 58 0.0 3.0 0.08 0.08 0.08 89 1007.7
20200409001028 52 336 1.0 5.0 0.05 0.05 0.05 87 1007.7
20200409000528 53 296 0.0 13.0 0.03 0.03 0.03 86 1007.6
20200409000045 53 338 2.0 13.0 0.01 0.01 0.01 83 1007.3
20200408235523 54 321 3.0 15.0 0.01 0.01 0.01 79 1007.5
20200408235028 55 343 5.0 15.0 0.01 0.01 0.01 75 1007.6
20200408234558 57 334 5.0 16.0 0.01 0.01 0.01 69 1007.7
20200408234019 58 12 6.0 16.0 0.00 0.00 0.00 61 1007.6
20200408233518 58 51 1.0 14.0 0.00 0.00 0.00 60 1007.3
20200408233031 58 252 3.0 25.0 0.00 0.00 0.00 58 1007.4
20200408232529 59 352 15.0 26.0 0.00 0.00 0.00 56 1007.3
20200408232026 60 318 8.0 29.0 0.00 0.00 0.00 54 1007.1
20200408231539 63 311 15.0 29.0 0.00 0.00 0.00 53 1006.9
20200408231023 66 340 1.0 5.0 0.00 0.00 0.00 65 1006.2
20200408230516 66 353 1.0 4.0 0.00 0.00 0.00 63 1005.9
20200408230050 66 264 0.0 4.0 0.00 0.00 0.00 63 1005.8
20200408225520 66 270 0.0 7.0 0.00 0.00 0.00 63 1005.7
20200408225015 66 323 3.0 7.0 0.00 0.00 0.00 63 1005.6
20200408224548 67 338 2.0 8.0 0.00 0.00 0.00 62 1005.8
20200408224014 67 291 3.0 8.0 0.00 0.00 0.00 61 1005.7
20200408223514 67 326 3.0 9.0 0.00 0.00 0.00 61 1005.5
20200408223058 67 300 3.0 14.0 0.00 0.00 0.00 62 1005.5
20200408222520 67 322 6.0 14.0 0.00 0.00 0.00 61 1005.4
20200408222013 68 22 7.0 14.0 0.00 0.00 0.00 60 1005.5
20200408221515 68 202 5.0 14.0 0.00 0.00 0.00 59 1005.4
20200408221012 68 297 7.0 13.0 0.00 0.00 0.00 59 1005.1
20200408220532 67 306 2.0 13.0 0.00 0.00 0.00 62 1005.4
20200408220018 67 257 5.0 12.0 0.00 0.00 0.00 62 1005.2
20200408215513 67 284 4.0 11.0 0.00 0.00 0.00 63 1005.2
20200408215018 67 305 3.0 12.0 0.00 0.00 0.00 62 1005.4
20200408214520 67 233 6.0 14.0 0.00 0.00 0.00 62 1005.2
20200408214024 67 342 4.0 13.0 0.00 0.00 0.00 62 1005.3
20200408213515 68 304 5.0 14.0 0.00 0.00 0.00 61 1005.2
20200408213020 68 318 5.0 13.0 0.00 0.00 0.00 63 1005.1
20200408212506 67 357 4.0 14.0 0.00 0.00 0.00 63 1005.1
20200408212006 67 239 6.0 14.0 0.00 0.00 0.00 63 1004.8
20200408211527 68 319 4.0 13.0 0.00 0.00 0.00 63 1004.8
20200408211006 68 271 6.0 13.0 0.00 0.00 0.00 63 1004.8
20200408210505 68 250 6.0 13.0 0.00 0.00 0.00 64 1004.9
20200408210005 68 339 6.0 14.0 0.00 0.00 0.00 64 1004.7
20200408205515 68 240 7.0 13.0 0.00 0.00 0.00 64 1004.5
20200408205003 68 257 6.0 13.0 0.00 0.00 0.00 66 1004.6
20200408204507 68 207 6.0 15.0 0.00 0.00 0.00 65 1004.6
20200408204003 67 259 6.0 18.0 0.00 0.00 0.00 65 1004.5
20200408203506 68 209 8.0 18.0 0.00 0.00 0.00 64 1004.9
20200408203013 68 257 6.0 19.0 0.00 0.00 0.00 63 1004.8
20200408202502 68 238 9.0 19.0 0.00 0.00 0.00 62 1004.7
20200408202002 68 213 7.0 16.0 0.00 0.00 0.00 64 1005.0
20200408201702 68 308 8.0 16.0 0.00 0.00 0.00 63 1005.1
20200408201059 68 214 4.0 16.0 0.00 0.00 0.00 64 1005.1
20200408200559 68 230 5.0 12.0 0.00 0.00 0.00 65 1005.1
20200408200142 68 227 6.0 17.0 0.00 0.00 0.00 65 1005.1
20200408195608 67 287 6.0 17.0 0.00 0.00 0.00 66 1005.1
20200408195114 67 311 5.0 13.0 0.00 0.00 0.00 66 1005.1
20200408194718 67 12 6.0 12.0 0.00 0.00 0.00 65 1005.2
20200408194059 67 64 3.0 14.0 0.00 0.00 0.00 67 1005.3
20200408193555 67 45 8.0 17.0 0.00 0.00 0.00 66 1005.5
20200408193232 67 233 7.0 17.0 0.00 0.00 0.00 64 1005.6
20200408192553 68 316 7.0 13.0 0.00 0.00 0.00 64 1005.5
20200408192100 68 279 6.0 16.0 0.00 0.00 0.00 65 1005.7
20200408191705 68 77 7.0 19.0 0.00 0.00 0.00 65 1005.7
20200408191052 67 1 6.0 19.0 0.00 0.00 0.00 65 1005.8
20200408190551 68 275 7.0 20.0 0.00 0.00 0.00 65 1005.7
20200408190113 67 291 6.0 20.0 0.00 0.00 0.00 66 1005.8
20200408185551 68 82 6.0 15.0 0.00 0.00 0.00 66 1005.9
20200408185048 67 24 7.0 17.0 0.00 0.00 0.00 66 1006.1
20200408184659 67 354 5.0 12.0 0.00 0.00 0.00 68 1006.1
20200408184049 67 299 6.0 17.0 0.00 0.00 0.00 68 1006.2
20200408183550 66 335 6.0 17.0 0.00 0.00 0.00 69 1006.3
20200408183124 66 316 4.0 15.0 0.00 0.00 0.00 70 1006.5
20200408182549 66 276 6.0 11.0 0.00 0.00 0.00 70 1006.7
20200408182043 67 243 2.0 10.0 0.00 0.00 0.00 71 1006.7
20200408181601 66 264 2.0 13.0 0.00 0.00 0.00 73 1006.8
20200408180541 66 300 4.0 13.0 0.00 0.00 0.00 72 1006.9
20200408180116 65 327 2.0 14.0 0.00 0.00 0.00 74 1006.9
20200408175540 65 308 4.0 15.0 0.00 0.05 0.00 75 1007.1
20200408174613 66 323 5.0 13.0 0.00 0.05 0.00 74 1007.3
20200408174038 65 300 7.0 13.0 0.00 0.05 0.00 73 1007.4
20200408173537 64 198 5.0 12.0 0.00 0.05 0.00 75 1007.5
20200408173054 64 266 5.0 12.0 0.00 0.05 0.00 76 1007.6
20200408172553 64 238 3.0 12.0 0.00 0.05 0.00 76 1007.6
20200408172035 64 283 4.0 10.0 0.00 0.05 0.00 76 1007.6
20200408171616 63 254 2.0 9.0 0.00 0.05 0.00 79 1007.7
20200408171035 62 198 4.0 12.0 0.00 0.05 0.00 79 1007.7
20200408170535 62 331 4.0 13.0 0.00 0.05 0.00 79 1007.7
20200408170058 63 329 4.0 13.0 0.00 0.05 0.00 78 1007.8
20200408165534 63 269 4.0 9.0 0.00 0.10 0.00 78 1007.8
20200408165041 63 34 2.0 11.0 0.00 0.10 0.00 78 1007.8
20200408164539 62 158 3.0 11.0 0.00 0.10 0.00 79 1007.7
20200408164040 63 340 3.0 11.0 0.00 0.10 0.00 79 1007.9
20200408163536 62 325 4.0 11.0 0.00 0.10 0.00 79 1007.9
20200408163059 62 311 2.0 9.0 0.00 0.10 0.00 80 1007.9
20200408162533 62 316 2.0 9.0 0.00 0.10 0.00 80 1007.8
20200408162051 62 268 4.0 8.0 0.00 0.10 0.00 80 1007.9
20200408161548 62 236 1.0 9.0 0.00 0.10 0.00 81 1008.0
20200408161038 62 236 5.0 9.0 0.00 0.10 0.00 80 1008.0
20200408160547 61 276 4.0 11.0 0.00 0.10 0.00 81 1008.2
20200408160114 61 290 4.0 13.0 0.00 0.10 0.00 80 1008.1
20200408155535 62 307 5.0 13.0 0.00 0.10 0.00 79 1008.1
20200408155031 62 202 2.0 16.0 0.00 0.10 0.00 80 1008.2
20200408154544 62 196 5.0 16.0 0.00 0.10 0.00 79 1008.2
20200408154029 62 278 5.0 14.0 0.00 0.10 0.00 78 1008.1
20200408153529 63 257 7.0 14.0 0.00 0.10 0.00 77 1008.0
20200408153130 63 237 6.0 14.0 0.00 0.10 0.00 77 1008.1
20200408152530 63 255 3.0 11.0 0.00 0.10 0.00 77 1007.9
20200408152028 63 299 2.0 12.0 0.00 0.10 0.00 78 1007.8
20200408151542 62 256 1.0 7.0 0.00 0.10 0.00 79 1007.9
20200408151034 62 312 2.0 7.0 0.00 0.10 0.00 80 1008.0
20200408150536 62 242 1.0 12.0 0.00 0.10 0.00 80 1008.0
20200408150027 62 257 5.0 13.0 0.00 0.10 0.00 79 1008.0
20200408145527 62 225 5.0 13.0 0.00 0.10 0.00 79 1008.0
20200408145056 62 212 4.0 11.0 0.00 0.10 0.00 79 1008.0
20200408144605 62 238 5.0 11.0 0.00 0.10 0.00 79 1007.8
20200408144040 62 115 4.0 14.0 0.00 0.10 0.00 80 1007.9
20200408143537 61 153 7.0 14.0 0.00 0.10 0.00 80 1007.9
20200408143107 61 315 5.0 14.0 0.00 0.10 0.00 80 1007.8
20200408142525 61 233 7.0 14.0 0.00 0.10 0.00 80 1007.8
20200408142025 61 236 6.0 13.0 0.00 0.10 0.00 81 1007.8
20200408141530 60 254 5.0 12.0 0.00 0.10 0.00 82 1007.7
20200408141025 60 145 5.0 14.0 0.00 0.10 0.00 82 1007.8
20200408140525 60 275 3.0 14.0 0.00 0.10 0.00 82 1007.8
20200408140040 61 211 4.0 13.0 0.00 0.10 0.00 81 1007.7
20200408135533 60 189 2.0 13.0 0.00 0.10 0.00 82 1007.6
20200408135023 60 269 2.0 11.0 0.00 0.10 0.00 82 1007.8
20200408134600 60 278 2.0 11.0 0.00 0.10 0.00 83 1007.7
20200408134030 60 249 1.0 8.0 0.00 0.10 0.00 83 1007.6
20200408133523 59 320 2.0 8.0 0.00 0.10 0.00 84 1007.6
20200408133025 59 335 3.0 12.0 0.00 0.10 0.00 85 1007.4
20200408132524 59 356 5.0 12.0 0.00 0.10 0.00 85 1007.6
20200408132031 59 231 4.0 13.0 0.00 0.10 0.00 85 1007.6
20200408131544 59 311 9.0 13.0 0.00 0.10 0.00 84 1007.7
20200408131023 59 58 6.0 14.0 0.00 0.10 0.00 84 1007.7
20200408130523 59 291 6.0 14.0 0.00 0.10 0.00 83 1007.5
20200408130032 59 232 4.0 13.0 0.00 0.10 0.00 84 1007.6
20200408125527 58 290 6.0 14.0 0.00 0.10 0.00 83 1007.6
20200408125038 58 189 6.0 14.0 0.00 0.10 0.00 83 1007.4
20200408124522 58 288 4.0 12.0 0.00 0.10 0.00 84 1007.5
20200408124036 58 275 4.0 15.0 0.00 0.10 0.00 83 1007.4
20200408123521 58 330 9.0 19.0 0.00 0.10 0.00 83 1007.5
20200408123022 58 244 9.0 19.0 0.00 0.10 0.00 83 1007.6
20200408122531 58 336 7.0 17.0 0.00 0.10 0.00 83 1007.5
20200408122021 58 330 6.0 17.0 0.00 0.10 0.00 83 1007.7
20200408121538 58 302 8.0 0.0 0.00 0.00 0.00 82 1007.6
20200408121053 58 16 10.0 25.0 0.00 0.10 0.00 82 1007.6
20200408120520 58 326 13.0 25.0 0.00 0.10 0.00 82 1007.5
20200408120021 58 208 7.0 25.0 0.00 0.10 0.00 82 1007.5
20200408115518 58 23 12.0 25.0 0.00 0.10 0.00 82 1007.4
20200408115022 58 351 9.0 19.0 0.00 0.10 0.00 82 1007.4
20200408114519 58 322 10.0 25.0 0.00 0.10 0.00 81 1007.3
20200408114017 58 173 11.0 25.0 0.00 0.10 0.00 81 1007.2
20200408113519 59 225 6.0 22.0 0.00 0.10 0.00 80 1007.1
20200408113037 59 256 8.0 27.0 0.00 0.10 0.00 80 1007.0
20200408112516 59 352 12.0 27.0 0.00 0.10 0.00 79 1006.8
20200408112023 59 171 8.0 24.0 0.00 0.10 0.00 79 1006.8
20200408111537 59 260 14.0 24.0 0.00 0.10 0.00 78 1006.5
20200408111014 59 335 8.0 26.0 0.00 0.10 0.00 77 1006.5
20200408110513 59 4 9.0 18.0 0.00 0.10 0.00 77 1006.4
20200408110015 59 302 7.0 16.0 0.00 0.10 0.00 77 1006.3
20200408105512 58 267 5.0 13.0 0.00 0.10 0.00 76 1006.2
20200408105012 58 11 6.0 13.0 0.00 0.10 0.00 76 1006.3
20200408104523 58 293 4.0 12.0 0.00 0.10 0.00 76 1006.1
20200408104015 58 290 6.0 12.0 0.00 0.10 0.00 77 1005.9
20200408103510 58 321 4.0 14.0 0.00 0.10 0.00 77 1006.1
20200408103012 58 291 5.0 14.0 0.00 0.10 0.00 77 1006.1
20200408102510 58 275 5.0 12.0 0.00 0.10 0.00 77 1006.0
20200408102014 58 216 5.0 11.0 0.00 0.10 0.00 76 1005.8
20200408101512 58 322 5.0 12.0 0.00 0.10 0.00 76 1005.7
20200408101010 58 356 4.0 14.0 0.00 0.10 0.00 76 1005.7
20200408100508 58 344 7.0 14.0 0.00 0.10 0.00 76 1005.7
20200408100035 58 299 6.0 16.0 0.00 0.10 0.00 76 1005.8
20200408095512 58 283 8.0 14.0 0.00 0.10 0.00 76 1005.8
20200408095007 58 311 6.0 14.0 0.00 0.10 0.00 77 1005.7
20200408094511 58 340 5.0 14.0 0.00 0.10 0.00 77 1005.8
20200408094011 58 326 7.0 14.0 0.00 0.10 0.00 77 1005.8
20200408093504 58 1 4.0 14.0 0.00 0.10 0.00 77 1005.8
20200408093031 58 325 4.0 14.0 0.00 0.10 0.00 77 1006.0
20200408092503 58 6 5.0 12.0 0.00 0.10 0.00 76 1006.0
20200408092007 58 294 6.0 12.0 0.00 0.10 0.00 76 1006.1
20200408091506 59 333 5.0 11.0 0.00 0.10 0.00 76 1006.1
20200408091001 59 23 5.0 14.0 0.00 0.10 0.00 76 1006.2
20200408090501 59 338 6.0 14.0 0.00 0.10 0.00 76 1006.2
20200408090005 59 125 7.0 15.0 0.00 0.10 0.00 76 1006.2
20200408085601 59 322 7.0 15.0 0.00 0.10 0.00 76 1006.1
20200408085106 59 313 5.0 14.0 0.00 0.10 0.00 76 1006.2
20200408084628 59 323 6.0 14.0 0.00 0.10 0.00 77 1006.3
20200408084056 59 321 7.0 15.0 0.00 0.10 0.00 77 1006.3
20200408083605 60 75 6.0 15.0 0.00 0.10 0.00 77 1006.3
20200408083219 60 311 4.0 10.0 0.00 0.10 0.00 79 1006.3
20200408082600 60 300 4.0 10.0 0.00 0.10 0.00 79 1006.4
20200408082052 60 313 3.0 10.0 0.00 0.10 0.00 79 1006.3
20200408081700 60 359 5.0 11.0 0.00 0.10 0.00 78 1006.4
20200408081057 60 271 5.0 11.0 0.00 0.10 0.00 78 1006.4
20200408080600 60 288 5.0 11.0 0.00 0.10 0.00 78 1006.5
20200408080131 60 301 5.0 11.0 0.00 0.10 0.00 78 1006.4
20200408075555 60 312 3.0 16.0 0.00 0.10 0.00 78 1006.5
20200408075052 61 8 6.0 16.0 0.00 0.10 0.00 78 1006.5
20200408074550 61 287 5.0 11.0 0.00 0.10 0.00 78 1006.5
20200408074121 61 308 3.0 13.0 0.00 0.10 0.00 77 1006.5
20200408073547 61 234 5.0 13.0 0.00 0.10 0.00 77 1006.7
20200408073112 61 327 3.0 10.0 0.00 0.10 0.00 77 1006.6
20200408072547 61 36 4.0 18.0 0.00 0.10 0.00 77 1006.7
20200408072056 61 16 4.0 12.0 0.00 0.10 0.00 77 1006.8
20200408071546 61 326 4.0 18.0 0.00 0.10 0.00 77 1006.8
20200408071046 61 283 9.0 18.0 0.00 0.10 0.00 77 1006.8
20200408070600 60 274 4.0 9.0 0.00 0.10 0.00 78 1006.9
20200408070130 60 249 1.0 8.0 0.00 0.10 0.00 78 1006.8
20200408065548 60 312 1.0 11.0 0.00 0.10 0.00 78 1007.0
20200408065043 60 336 3.0 11.0 0.00 0.10 0.00 78 1007.0
20200408064659 60 3 2.0 7.0 0.00 0.10 0.00 78 1007.1
20200408064041 60 321 1.0 3.0 0.00 0.10 0.00 78 1007.2
20200408063540 60 313 1.0 3.0 0.00 0.10 0.00 78 1007.3
20200408063046 60 240 0.0 0.0 0.00 0.10 0.00 79 1007.4
20200408062541 60 305 0.0 0.0 0.00 0.10 0.00 78 1007.5
20200408062042 61 236 0.0 0.0 0.00 0.10 0.00 78 1007.5
20200408061751 61 260 0.0 2.0 0.00 0.10 0.00 78 1007.7
20200408061046 61 253 0.0 5.0 0.00 0.10 0.00 78 1007.8
20200408060535 61 229 1.0 5.0 0.00 0.10 0.00 77 1008.0
20200408060040 61 210 0.0 4.0 0.00 0.10 0.00 78 1007.9
20200408055535 61 134 0.0 0.0 0.00 0.10 0.00 78 1007.9
20200408055044 61 232 0.0 0.0 0.00 0.10 0.00 77 1007.9
20200408054612 61 226 0.0 2.0 0.00 0.10 0.00 77 1008.1
20200408054037 62 151 0.0 6.0 0.00 0.10 0.00 77 1008.2
20200408053607 62 152 0.0 6.0 0.00 0.10 0.00 77 1008.4
20200408053048 62 159 0.0 5.0 0.00 0.10 0.00 76 1008.4
20200408052535 62 264 1.0 5.0 0.00 0.10 0.00 76 1008.6
20200408052048 62 198 1.0 6.0 0.00 0.10 0.00 77 1008.7
20200408051553 62 218 1.0 4.0 0.00 0.10 0.00 77 1008.8
20200408051026 62 184 0.0 4.0 0.00 0.10 0.00 77 1008.8
20200408050534 62 210 2.0 4.0 0.00 0.10 0.00 77 1008.9
20200408050054 62 173 0.0 6.0 0.00 0.10 0.00 77 1009.0
20200408045609 62 143 3.0 6.0 0.00 0.10 0.00 77 1009.1
20200408045044 62 245 0.0 4.0 0.00 0.10 0.00 77 1009.1
20200408044606 62 224 0.0 5.0 0.00 0.10 0.00 76 1009.2
20200408044030 62 195 2.0 5.0 0.00 0.10 0.00 76 1009.2
20200408043521 62 219 1.0 5.0 0.00 0.10 0.00 76 1009.2
20200408043021 62 148 0.0 5.0 0.00 0.10 0.00 76 1009.4
20200408042525 62 236 0.0 6.0 0.00 0.10 0.00 76 1009.4
20200408042027 62 125 2.0 5.0 0.00 0.10 0.00 75 1009.5
20200408041520 63 167 0.0 6.0 0.00 0.10 0.00 75 1009.6
20200408041019 63 122 3.0 8.0 0.00 0.10 0.00 75 1009.5
20200408040536 63 225 3.0 10.0 0.00 0.10 0.00 75 1009.7
20200408035516 63 192 1.0 9.0 0.00 0.10 0.10 74 1009.9
20200408035020 63 178 4.0 7.0 0.00 0.10 0.10 74 1009.9
20200408034519 63 243 2.0 9.0 0.00 0.10 0.10 74 1009.9
20200408034013 63 239 2.0 9.0 0.00 0.10 0.10 74 1010.0
20200408033513 63 213 3.0 9.0 0.00 0.10 0.10 74 1010.2
20200408033054 63 248 2.0 9.0 0.00 0.10 0.10 73 1010.2
20200408032513 63 204 2.0 10.0 0.00 0.10 0.10 73 1010.2
20200408032014 63 231 3.0 11.0 0.00 0.10 0.10 72 1010.2
20200408031547 63 185 4.0 11.0 0.00 0.10 0.10 72 1010.1